In Rescue
 
Open Full Screen Window  High Contrast Mode
Wind Gusting 00 knots
14
January 17, 2021 1:32 PM CST
Weather Information
Wind Direction
  340 °
Wind Speed
  14 kt (16 mph)
Wind Gust
  00 kt (0 mph)
Altimeter
29.85 in
Visibility
10 SM
Temperature
-04° C
25° F
Dewpoint
-08° C
18° F
Humidity
74%
1hr Rain Fall
00.00 in.
24hr Rain Fall
00.00 in.
Sky Condition
Clear
VFR

METAR KJKJ 171932Z AUTO 34014KT 10SM CLR M04/M08 A2985 RMK AO2

FAA Disclaimer: The data displayed is for advisory purposes only and is not to be used for flight planning or operations.